Abbeville, SC

2:04 AM EDT on May 28, 2015 (GMT -0400)
Due West SC Town Limits | | Change Station
CLOSE
Current Station
Personal Weather Station
Location: Due West, SC
Elevation: 669 ft
Nearby Weather Stations

Elev 669 ft 34.33 °N, 82.38 °W | Updated 1 second ago

Partly Cloudy
Partly Cloudy
69.1 °F
Feels Like 69.1 °F
N
0.0
Wind Variable Wind from SSE
Gusts 0.0 mph

Today
High -- | Low -- °F
--% Chance of Precip.
Yesterday
High -- | Low -- °F
Precip. -- in
6:20 AM 8:33 PM
Waxing Gibbous, 73% visible
Pressure 30.19 in
Visibility 10.0 miles
Clouds Scattered Clouds 3700 ft
Scattered Clouds 4500 ft
Dew Point 69 °F
Humidity 99%
Rainfall 0.00 in
Snow Depth Not available.
UV 0.0 out of 12
Pollen .80 out of 12
Air Quality Not available.
Flu Activity Local Activity
METAR KGRD 280556Z AUTO 18004KT 10SM SCT037 SCT045 22/19 A3022 RMK AO2 SLP224 T02170194 10267 20211 58009

More Conditions Fewer Conditions

Pressure 30.19 in
Visibility 10.0 miles
Clouds Scattered Clouds 3700 ft
Scattered Clouds 4500 ft
Dew Point 69 °F
Humidity 99%
Rainfall 0.00 in
Snow Depth Not available.
UV 0.0 out of 12
Pollen .80 out of 12
Air Quality Not available.
Flu Activity Local Activity
METAR KGRD 280556Z AUTO 18004KT 10SM SCT037 SCT045 22/19 A3022 RMK AO2 SLP224 T02170194 10267 20211 58009

More Conditions Fewer Conditions

10-Day Weather Forecast

Almanac

Astronomy

May. 28, 2015 Rise Set
Actual Time
Civil Twilight
Nautical Twilight
Astronomical Twilight
Moon
Length of Visible Light
Length of Day
Tomorrow will be .
, % of the Moon is Illuminated

Today's Extremes

State Highs State Lows

Community

WunderPhotos

Upload Photos

1,824,931 photos uploaded!

WunderBlogs® & News

Nearby

Air Quality

  Air Quality AQ Index Pollutant
Not available.

Snow Depth

Station Depth Elevation

Earthquake Activity

City Distance Mag. Time & Date
Minimum magnitude displayed is 2.5.

Coastal Water Temperatures

Place Temperature

Stations

Nearby Weather Stations

Station Location Temp. Windchill Dew Point Humidity Wind Precip. Elev Updated Type